sensor_id;sensor_type;location;lat;lon;timestamp;P1;durP1;ratioP1;P2;durP2;ratioP2
18651;SDS011;9455;54.302;10.124;2022-10-19T00:00:14;4.53;;;0.90;;
18651;SDS011;9455;54.302;10.124;2022-10-19T00:02:40;1.70;;;0.97;;
18651;SDS011;9455;54.302;10.124;2022-10-19T00:05:08;7.47;;;0.90;;
18651;SDS011;9455;54.302;10.124;2022-10-19T00:07:35;2.60;;;0.50;;
18651;SDS011;9455;54.302;10.124;2022-10-19T00:10:02;6.53;;;0.90;;
18651;SDS011;9455;54.302;10.124;2022-10-19T00:12:29;7.27;;;0.87;;
18651;SDS011;9455;54.302;10.124;2022-10-19T00:14:56;5.77;;;0.60;;
18651;SDS011;9455;54.302;10.124;2022-10-19T00:17:23;1.03;;;0.70;;
18651;SDS011;9455;54.302;10.124;2022-10-19T00:19:49;3.63;;;0.83;;
18651;SDS011;9455;54.302;10.124;2022-10-19T00:22:17;1.30;;;1.03;;
18651;SDS011;9455;54.302;10.124;2022-10-19T00:24:43;3.03;;;0.70;;
18651;SDS011;9455;54.302;10.124;2022-10-19T00:27:10;7.57;;;0.90;;
18651;SDS011;9455;54.302;10.124;2022-10-19T00:29:37;4.53;;;0.60;;
18651;SDS011;9455;54.302;10.124;2022-10-19T00:32:03;6.17;;;0.70;;
18651;SDS011;9455;54.302;10.124;2022-10-19T00:34:30;9.03;;;0.80;;
18651;SDS011;9455;54.302;10.124;2022-10-19T00:36:57;2.57;;;1.23;;
18651;SDS011;9455;54.302;10.124;2022-10-19T00:39:24;1.17;;;0.60;;
18651;SDS011;9455;54.302;10.124;2022-10-19T00:41:51;11.73;;;1.10;;
18651;SDS011;9455;54.302;10.124;2022-10-19T00:47:21;3.30;;;0.90;;
18651;SDS011;9455;54.302;10.124;2022-10-19T00:49:49;2.00;;;0.67;;
18651;SDS011;9455;54.302;10.124;2022-10-19T00:52:17;11.90;;;1.27;;
18651;SDS011;9455;54.302;10.124;2022-10-19T00:54:47;3.77;;;1.07;;
18651;SDS011;9455;54.302;10.124;2022-10-19T00:57:16;3.53;;;0.70;;
18651;SDS011;9455;54.302;10.124;2022-10-19T00:59:43;3.80;;;0.97;;
18651;SDS011;9455;54.302;10.124;2022-10-19T01:02:11;2.27;;;0.80;;
18651;SDS011;9455;54.302;10.124;2022-10-19T01:04:39;5.53;;;0.63;;
18651;SDS011;9455;54.302;10.124;2022-10-19T01:07:09;3.10;;;0.53;;
18651;SDS011;9455;54.302;10.124;2022-10-19T01:09:36;3.93;;;0.77;;
18651;SDS011;9455;54.302;10.124;2022-10-19T01:12:05;4.50;;;1.30;;
18651;SDS011;9455;54.302;10.124;2022-10-19T01:14:42;11.30;;;0.73;;
18651;SDS011;9455;54.302;10.124;2022-10-19T01:17:21;4.17;;;0.90;;
18651;SDS011;9455;54.302;10.124;2022-10-19T01:19:59;6.67;;;0.70;;
18651;SDS011;9455;54.302;10.124;2022-10-19T01:22:51;6.00;;;1.03;;
18651;SDS011;9455;54.302;10.124;2022-10-19T01:25:33;4.10;;;0.90;;
18651;SDS011;9455;54.302;10.124;2022-10-19T01:28:25;9.70;;;1.00;;
18651;SDS011;9455;54.302;10.124;2022-10-19T01:31:07;2.50;;;0.70;;
18651;SDS011;9455;54.302;10.124;2022-10-19T01:33:45;8.60;;;1.53;;
18651;SDS011;9455;54.302;10.124;2022-10-19T01:36:19;3.90;;;1.03;;
18651;SDS011;9455;54.302;10.124;2022-10-19T01:38:50;8.50;;;0.77;;
18651;SDS011;9455;54.302;10.124;2022-10-19T01:41:26;5.10;;;0.97;;
18651;SDS011;9455;54.302;10.124;2022-10-19T01:43:57;3.03;;;0.97;;
18651;SDS011;9455;54.302;10.124;2022-10-19T01:46:35;6.07;;;0.63;;
18651;SDS011;9455;54.302;10.124;2022-10-19T01:49:06;8.13;;;1.07;;
18651;SDS011;9455;54.302;10.124;2022-10-19T01:51:36;2.30;;;0.80;;
18651;SDS011;9455;54.302;10.124;2022-10-19T01:54:08;4.97;;;1.00;;
18651;SDS011;9455;54.302;10.124;2022-10-19T01:56:38;1.33;;;1.17;;
18651;SDS011;9455;54.302;10.124;2022-10-19T01:59:07;3.87;;;1.00;;
18651;SDS011;9455;54.302;10.124;2022-10-19T02:01:37;3.33;;;0.87;;
18651;SDS011;9455;54.302;10.124;2022-10-19T02:04:07;10.20;;;1.17;;
18651;SDS011;9455;54.302;10.124;2022-10-19T02:06:36;9.37;;;1.03;;
18651;SDS011;9455;54.302;10.124;2022-10-19T02:09:03;7.93;;;1.27;;
18651;SDS011;9455;54.302;10.124;2022-10-19T02:11:29;3.33;;;0.73;;
18651;SDS011;9455;54.302;10.124;2022-10-19T02:13:58;2.47;;;0.83;;
18651;SDS011;9455;54.302;10.124;2022-10-19T02:16:31;6.40;;;0.90;;
18651;SDS011;9455;54.302;10.124;2022-10-19T02:19:03;5.67;;;1.17;;
18651;SDS011;9455;54.302;10.124;2022-10-19T02:21:33;6.70;;;1.00;;
18651;SDS011;9455;54.302;10.124;2022-10-19T02:23:59;4.73;;;0.90;;
18651;SDS011;9455;54.302;10.124;2022-10-19T02:26:26;2.80;;;0.90;;
18651;SDS011;9455;54.302;10.124;2022-10-19T02:28:52;6.23;;;1.33;;
18651;SDS011;9455;54.302;10.124;2022-10-19T02:31:20;12.90;;;1.40;;
18651;SDS011;9455;54.302;10.124;2022-10-19T02:33:47;4.97;;;1.13;;
18651;SDS011;9455;54.302;10.124;2022-10-19T02:36:15;3.07;;;1.03;;
18651;SDS011;9455;54.302;10.124;2022-10-19T02:38:42;6.50;;;0.83;;
18651;SDS011;9455;54.302;10.124;2022-10-19T02:41:10;2.07;;;0.90;;
18651;SDS011;9455;54.302;10.124;2022-10-19T02:43:41;8.77;;;1.00;;
18651;SDS011;9455;54.302;10.124;2022-10-19T02:46:14;10.60;;;0.97;;
18651;SDS011;9455;54.302;10.124;2022-10-19T02:48:45;5.27;;;0.70;;
18651;SDS011;9455;54.302;10.124;2022-10-19T02:51:27;4.23;;;1.20;;
18651;SDS011;9455;54.302;10.124;2022-10-19T02:53:55;4.20;;;0.87;;
18651;SDS011;9455;54.302;10.124;2022-10-19T02:56:21;13.00;;;1.37;;
18651;SDS011;9455;54.302;10.124;2022-10-19T02:58:48;13.23;;;1.20;;
18651;SDS011;9455;54.302;10.124;2022-10-19T03:01:14;4.70;;;0.87;;
18651;SDS011;9455;54.302;10.124;2022-10-19T03:03:41;2.90;;;0.90;;
18651;SDS011;9455;54.302;10.124;2022-10-19T03:06:07;5.23;;;1.60;;
18651;SDS011;9455;54.302;10.124;2022-10-19T03:08:35;9.53;;;1.37;;
18651;SDS011;9455;54.302;10.124;2022-10-19T03:11:02;9.67;;;2.03;;
18651;SDS011;9455;54.302;10.124;2022-10-19T03:13:29;3.13;;;1.47;;
18651;SDS011;9455;54.302;10.124;2022-10-19T03:15:55;6.00;;;0.77;;
18651;SDS011;9455;54.302;10.124;2022-10-19T03:18:22;5.43;;;1.07;;
18651;SDS011;9455;54.302;10.124;2022-10-19T03:20:48;5.93;;;1.13;;
18651;SDS011;9455;54.302;10.124;2022-10-19T03:23:15;3.73;;;1.10;;
18651;SDS011;9455;54.302;10.124;2022-10-19T03:25:42;10.63;;;1.30;;
18651;SDS011;9455;54.302;10.124;2022-10-19T03:28:09;6.67;;;1.30;;
18651;SDS011;9455;54.302;10.124;2022-10-19T03:30:35;9.00;;;1.50;;
18651;SDS011;9455;54.302;10.124;2022-10-19T03:33:02;7.00;;;1.00;;
18651;SDS011;9455;54.302;10.124;2022-10-19T03:35:28;7.77;;;1.10;;
18651;SDS011;9455;54.302;10.124;2022-10-19T03:37:55;8.20;;;1.23;;
18651;SDS011;9455;54.302;10.124;2022-10-19T03:40:21;4.07;;;1.07;;
18651;SDS011;9455;54.302;10.124;2022-10-19T03:42:49;6.23;;;1.23;;
18651;SDS011;9455;54.302;10.124;2022-10-19T03:45:15;5.23;;;1.13;;
18651;SDS011;9455;54.302;10.124;2022-10-19T03:47:42;6.67;;;1.20;;
18651;SDS011;9455;54.302;10.124;2022-10-19T03:50:08;7.97;;;1.53;;
18651;SDS011;9455;54.302;10.124;2022-10-19T03:52:38;19.23;;;2.53;;
18651;SDS011;9455;54.302;10.124;2022-10-19T03:55:04;9.07;;;1.53;;
18651;SDS011;9455;54.302;10.124;2022-10-19T03:57:32;12.30;;;1.87;;
18651;SDS011;9455;54.302;10.124;2022-10-19T04:00:00;6.70;;;1.60;;
18651;SDS011;9455;54.302;10.124;2022-10-19T04:02:26;16.07;;;1.57;;
18651;SDS011;9455;54.302;10.124;2022-10-19T04:04:52;7.20;;;1.53;;
18651;SDS011;9455;54.302;10.124;2022-10-19T04:07:19;8.10;;;1.33;;
18651;SDS011;9455;54.302;10.124;2022-10-19T04:09:45;7.67;;;1.77;;
18651;SDS011;9455;54.302;10.124;2022-10-19T04:12:12;8.50;;;2.47;;
18651;SDS011;9455;54.302;10.124;2022-10-19T04:14:38;11.13;;;1.50;;
18651;SDS011;9455;54.302;10.124;2022-10-19T04:17:07;19.70;;;2.03;;
18651;SDS011;9455;54.302;10.124;2022-10-19T04:19:35;11.40;;;1.17;;
18651;SDS011;9455;54.302;10.124;2022-10-19T04:22:02;6.20;;;1.10;;
18651;SDS011;9455;54.302;10.124;2022-10-19T04:24:28;8.57;;;1.50;;
18651;SDS011;9455;54.302;10.124;2022-10-19T04:26:55;14.67;;;1.20;;
18651;SDS011;9455;54.302;10.124;2022-10-19T04:29:22;14.83;;;1.80;;
18651;SDS011;9455;54.302;10.124;2022-10-19T04:31:50;9.73;;;1.93;;
18651;SDS011;9455;54.302;10.124;2022-10-19T04:34:19;13.27;;;2.10;;
18651;SDS011;9455;54.302;10.124;2022-10-19T04:36:45;13.90;;;1.53;;
18651;SDS011;9455;54.302;10.124;2022-10-19T04:39:12;4.63;;;1.70;;
18651;SDS011;9455;54.302;10.124;2022-10-19T04:41:39;5.47;;;1.50;;
18651;SDS011;9455;54.302;10.124;2022-10-19T04:44:05;12.57;;;1.90;;
18651;SDS011;9455;54.302;10.124;2022-10-19T04:46:32;8.77;;;1.50;;
18651;SDS011;9455;54.302;10.124;2022-10-19T04:48:58;6.97;;;1.93;;
18651;SDS011;9455;54.302;10.124;2022-10-19T04:51:26;2.83;;;1.60;;
18651;SDS011;9455;54.302;10.124;2022-10-19T04:53:53;4.10;;;1.37;;
18651;SDS011;9455;54.302;10.124;2022-10-19T04:56:22;2.47;;;1.30;;
18651;SDS011;9455;54.302;10.124;2022-10-19T04:58:52;11.40;;;1.47;;
18651;SDS011;9455;54.302;10.124;2022-10-19T05:01:20;14.50;;;1.50;;
18651;SDS011;9455;54.302;10.124;2022-10-19T05:03:47;6.73;;;1.77;;
18651;SDS011;9455;54.302;10.124;2022-10-19T05:06:14;17.07;;;1.73;;
18651;SDS011;9455;54.302;10.124;2022-10-19T05:08:41;12.90;;;2.00;;
18651;SDS011;9455;54.302;10.124;2022-10-19T05:11:09;153.77;;;8.63;;
18651;SDS011;9455;54.302;10.124;2022-10-19T05:13:38;6.43;;;1.67;;
18651;SDS011;9455;54.302;10.124;2022-10-19T05:16:05;11.13;;;2.03;;
18651;SDS011;9455;54.302;10.124;2022-10-19T05:18:33;7.80;;;1.73;;
18651;SDS011;9455;54.302;10.124;2022-10-19T05:21:01;7.93;;;1.53;;
18651;SDS011;9455;54.302;10.124;2022-10-19T05:23:28;6.20;;;1.40;;
18651;SDS011;9455;54.302;10.124;2022-10-19T05:26:00;8.93;;;1.80;;
18651;SDS011;9455;54.302;10.124;2022-10-19T05:28:27;23.13;;;2.33;;
18651;SDS011;9455;54.302;10.124;2022-10-19T05:30:54;13.30;;;1.87;;
18651;SDS011;9455;54.302;10.124;2022-10-19T05:33:20;12.03;;;2.10;;
18651;SDS011;9455;54.302;10.124;2022-10-19T05:35:47;12.10;;;1.80;;
18651;SDS011;9455;54.302;10.124;2022-10-19T05:38:13;5.53;;;1.67;;
18651;SDS011;9455;54.302;10.124;2022-10-19T05:40:43;13.60;;;2.60;;
18651;SDS011;9455;54.302;10.124;2022-10-19T05:43:11;8.27;;;1.60;;
18651;SDS011;9455;54.302;10.124;2022-10-19T05:45:38;8.83;;;2.10;;
18651;SDS011;9455;54.302;10.124;2022-10-19T05:48:04;5.57;;;1.37;;
18651;SDS011;9455;54.302;10.124;2022-10-19T05:50:31;15.77;;;2.10;;
18651;SDS011;9455;54.302;10.124;2022-10-19T05:52:58;10.50;;;1.70;;
18651;SDS011;9455;54.302;10.124;2022-10-19T05:55:24;16.17;;;1.53;;
18651;SDS011;9455;54.302;10.124;2022-10-19T05:57:50;10.03;;;1.87;;
18651;SDS011;9455;54.302;10.124;2022-10-19T06:00:18;10.03;;;1.30;;
18651;SDS011;9455;54.302;10.124;2022-10-19T06:02:45;10.03;;;2.30;;
18651;SDS011;9455;54.302;10.124;2022-10-19T06:05:11;19.03;;;1.60;;
18651;SDS011;9455;54.302;10.124;2022-10-19T06:07:38;7.73;;;1.60;;
18651;SDS011;9455;54.302;10.124;2022-10-19T06:10:05;4.70;;;1.37;;
18651;SDS011;9455;54.302;10.124;2022-10-19T06:12:33;19.90;;;3.33;;
18651;SDS011;9455;54.302;10.124;2022-10-19T06:15:00;19.77;;;2.60;;
18651;SDS011;9455;54.302;10.124;2022-10-19T06:17:28;18.77;;;2.53;;
18651;SDS011;9455;54.302;10.124;2022-10-19T06:19:54;8.20;;;1.90;;
18651;SDS011;9455;54.302;10.124;2022-10-19T06:22:21;12.27;;;2.40;;
18651;SDS011;9455;54.302;10.124;2022-10-19T06:24:48;10.33;;;1.83;;
18651;SDS011;9455;54.302;10.124;2022-10-19T06:27:15;9.33;;;1.73;;
18651;SDS011;9455;54.302;10.124;2022-10-19T06:29:41;15.33;;;1.73;;
18651;SDS011;9455;54.302;10.124;2022-10-19T06:32:07;11.73;;;2.13;;
18651;SDS011;9455;54.302;10.124;2022-10-19T06:34:35;5.43;;;1.70;;
18651;SDS011;9455;54.302;10.124;2022-10-19T06:37:02;15.63;;;1.80;;
18651;SDS011;9455;54.302;10.124;2022-10-19T06:39:28;10.73;;;1.77;;
18651;SDS011;9455;54.302;10.124;2022-10-19T06:41:55;21.40;;;2.27;;
18651;SDS011;9455;54.302;10.124;2022-10-19T06:44:21;16.00;;;2.00;;
18651;SDS011;9455;54.302;10.124;2022-10-19T06:46:48;14.97;;;2.47;;
18651;SDS011;9455;54.302;10.124;2022-10-19T06:49:14;15.93;;;2.67;;
18651;SDS011;9455;54.302;10.124;2022-10-19T06:51:42;7.07;;;1.50;;
18651;SDS011;9455;54.302;10.124;2022-10-19T06:54:08;9.43;;;1.67;;
18651;SDS011;9455;54.302;10.124;2022-10-19T06:56:35;25.73;;;3.27;;
18651;SDS011;9455;54.302;10.124;2022-10-19T06:59:02;13.03;;;3.00;;
18651;SDS011;9455;54.302;10.124;2022-10-19T07:01:28;12.33;;;1.93;;
18651;SDS011;9455;54.302;10.124;2022-10-19T07:03:55;6.83;;;2.30;;
18651;SDS011;9455;54.302;10.124;2022-10-19T07:06:22;10.33;;;2.07;;
18651;SDS011;9455;54.302;10.124;2022-10-19T07:08:50;8.60;;;1.93;;
18651;SDS011;9455;54.302;10.124;2022-10-19T07:11:18;11.67;;;2.23;;
18651;SDS011;9455;54.302;10.124;2022-10-19T07:13:47;13.83;;;1.83;;
18651;SDS011;9455;54.302;10.124;2022-10-19T07:16:14;7.47;;;1.73;;
18651;SDS011;9455;54.302;10.124;2022-10-19T07:18:43;9.63;;;2.70;;
18651;SDS011;9455;54.302;10.124;2022-10-19T07:21:10;24.60;;;2.80;;
18651;SDS011;9455;54.302;10.124;2022-10-19T07:23:38;5.33;;;1.90;;
18651;SDS011;9455;54.302;10.124;2022-10-19T07:26:08;8.57;;;1.80;;
18651;SDS011;9455;54.302;10.124;2022-10-19T07:28:36;9.67;;;1.80;;
18651;SDS011;9455;54.302;10.124;2022-10-19T07:31:04;8.87;;;1.67;;
18651;SDS011;9455;54.302;10.124;2022-10-19T07:33:33;4.53;;;1.50;;
18651;SDS011;9455;54.302;10.124;2022-10-19T07:35:59;7.00;;;1.60;;
18651;SDS011;9455;54.302;10.124;2022-10-19T07:38:26;6.10;;;1.50;;
18651;SDS011;9455;54.302;10.124;2022-10-19T07:40:58;14.53;;;1.30;;
18651;SDS011;9455;54.302;10.124;2022-10-19T07:43:27;3.23;;;1.20;;
18651;SDS011;9455;54.302;10.124;2022-10-19T07:45:56;6.50;;;1.57;;
18651;SDS011;9455;54.302;10.124;2022-10-19T07:48:23;7.97;;;1.60;;
18651;SDS011;9455;54.302;10.124;2022-10-19T07:50:50;16.20;;;2.37;;
18651;SDS011;9455;54.302;10.124;2022-10-19T07:53:16;4.93;;;1.47;;
18651;SDS011;9455;54.302;10.124;2022-10-19T07:55:42;4.10;;;1.33;;
18651;SDS011;9455;54.302;10.124;2022-10-19T07:58:09;10.17;;;0.93;;
18651;SDS011;9455;54.302;10.124;2022-10-19T08:00:37;0.60;;;0.60;;
18651;SDS011;9455;54.302;10.124;2022-10-19T08:03:03;2.60;;;0.83;;
18651;SDS011;9455;54.302;10.124;2022-10-19T08:05:30;2.67;;;1.13;;
18651;SDS011;9455;54.302;10.124;2022-10-19T08:07:57;3.60;;;0.70;;
18651;SDS011;9455;54.302;10.124;2022-10-19T08:10:23;0.77;;;0.60;;
18651;SDS011;9455;54.302;10.124;2022-10-19T08:12:50;3.60;;;0.80;;
18651;SDS011;9455;54.302;10.124;2022-10-19T08:15:16;4.30;;;1.00;;
18651;SDS011;9455;54.302;10.124;2022-10-19T08:17:44;2.83;;;1.83;;
18651;SDS011;9455;54.302;10.124;2022-10-19T08:20:11;5.03;;;1.10;;
18651;SDS011;9455;54.302;10.124;2022-10-19T08:22:37;0.90;;;0.90;;
18651;SDS011;9455;54.302;10.124;2022-10-19T08:25:06;3.40;;;0.70;;
18651;SDS011;9455;54.302;10.124;2022-10-19T08:27:32;4.07;;;0.97;;
18651;SDS011;9455;54.302;10.124;2022-10-19T08:29:59;0.50;;;0.50;;
18651;SDS011;9455;54.302;10.124;2022-10-19T08:32:25;5.90;;;1.00;;
18651;SDS011;9455;54.302;10.124;2022-10-19T08:34:53;2.63;;;0.77;;
18651;SDS011;9455;54.302;10.124;2022-10-19T08:37:20;1.20;;;0.80;;
18651;SDS011;9455;54.302;10.124;2022-10-19T08:39:46;2.67;;;0.80;;
18651;SDS011;9455;54.302;10.124;2022-10-19T08:42:14;2.00;;;0.60;;
18651;SDS011;9455;54.302;10.124;2022-10-19T08:45:02;2.80;;;0.77;;
18651;SDS011;9455;54.302;10.124;2022-10-19T08:47:57;3.97;;;0.67;;
18651;SDS011;9455;54.302;10.124;2022-10-19T08:50:32;5.90;;;0.83;;
18651;SDS011;9455;54.302;10.124;2022-10-19T08:53:03;2.93;;;0.53;;
18651;SDS011;9455;54.302;10.124;2022-10-19T08:55:35;3.20;;;0.60;;
18651;SDS011;9455;54.302;10.124;2022-10-19T08:58:11;1.23;;;0.40;;
18651;SDS011;9455;54.302;10.124;2022-10-19T09:00:48;3.80;;;0.70;;
18651;SDS011;9455;54.302;10.124;2022-10-19T09:03:22;6.23;;;1.00;;
18651;SDS011;9455;54.302;10.124;2022-10-19T09:05:53;1.03;;;0.60;;
18651;SDS011;9455;54.302;10.124;2022-10-19T09:08:25;0.43;;;0.43;;
18651;SDS011;9455;54.302;10.124;2022-10-19T09:10:53;0.73;;;0.53;;
18651;SDS011;9455;54.302;10.124;2022-10-19T09:13:22;3.60;;;0.67;;
18651;SDS011;9455;54.302;10.124;2022-10-19T09:15:59;6.03;;;0.50;;
18651;SDS011;9455;54.302;10.124;2022-10-19T09:18:28;0.60;;;0.60;;
18651;SDS011;9455;54.302;10.124;2022-10-19T09:20:59;0.53;;;0.50;;
18651;SDS011;9455;54.302;10.124;2022-10-19T09:23:32;7.53;;;0.53;;
18651;SDS011;9455;54.302;10.124;2022-10-19T09:26:03;0.63;;;0.57;;
18651;SDS011;9455;54.302;10.124;2022-10-19T09:28:38;6.67;;;0.93;;
18651;SDS011;9455;54.302;10.124;2022-10-19T09:31:12;1.37;;;0.43;;
18651;SDS011;9455;54.302;10.124;2022-10-19T09:33:43;0.83;;;0.40;;
18651;SDS011;9455;54.302;10.124;2022-10-19T09:36:17;0.77;;;0.53;;
18651;SDS011;9455;54.302;10.124;2022-10-19T09:38:44;3.67;;;0.80;;
18651;SDS011;9455;54.302;10.124;2022-10-19T09:41:14;3.63;;;0.77;;
18651;SDS011;9455;54.302;10.124;2022-10-19T09:43:48;8.13;;;0.63;;
18651;SDS011;9455;54.302;10.124;2022-10-19T09:46:23;1.30;;;0.50;;
18651;SDS011;9455;54.302;10.124;2022-10-19T09:48:57;3.93;;;0.43;;
18651;SDS011;9455;54.302;10.124;2022-10-19T09:51:28;0.50;;;0.50;;
18651;SDS011;9455;54.302;10.124;2022-10-19T09:54:05;0.63;;;0.50;;
18651;SDS011;9455;54.302;10.124;2022-10-19T09:56:31;2.83;;;0.87;;
18651;SDS011;9455;54.302;10.124;2022-10-19T09:59:02;1.57;;;0.30;;
18651;SDS011;9455;54.302;10.124;2022-10-19T10:01:29;4.17;;;0.63;;
18651;SDS011;9455;54.302;10.124;2022-10-19T10:04:03;0.40;;;0.40;;
18651;SDS011;9455;54.302;10.124;2022-10-19T10:06:32;0.57;;;0.50;;
18651;SDS011;9455;54.302;10.124;2022-10-19T10:08:59;2.00;;;0.30;;
18651;SDS011;9455;54.302;10.124;2022-10-19T10:11:28;5.70;;;1.03;;
18651;SDS011;9455;54.302;10.124;2022-10-19T10:13:58;0.50;;;0.50;;
18651;SDS011;9455;54.302;10.124;2022-10-19T10:16:32;0.40;;;0.40;;
18651;SDS011;9455;54.302;10.124;2022-10-19T10:19:01;0.70;;;0.70;;
18651;SDS011;9455;54.302;10.124;2022-10-19T10:21:33;0.30;;;0.30;;
18651;SDS011;9455;54.302;10.124;2022-10-19T10:24:15;1.20;;;0.30;;
18651;SDS011;9455;54.302;10.124;2022-10-19T10:26:44;3.40;;;0.30;;
18651;SDS011;9455;54.302;10.124;2022-10-19T10:29:16;1.90;;;0.37;;
18651;SDS011;9455;54.302;10.124;2022-10-19T10:31:45;0.90;;;0.40;;
18651;SDS011;9455;54.302;10.124;2022-10-19T10:34:16;3.90;;;0.40;;
18651;SDS011;9455;54.302;10.124;2022-10-19T10:36:49;0.23;;;0.23;;
18651;SDS011;9455;54.302;10.124;2022-10-19T10:39:18;5.53;;;0.97;;
18651;SDS011;9455;54.302;10.124;2022-10-19T10:41:45;5.50;;;0.90;;
18651;SDS011;9455;54.302;10.124;2022-10-19T10:44:16;0.57;;;0.40;;
18651;SDS011;9455;54.302;10.124;2022-10-19T10:46:48;0.30;;;0.30;;
18651;SDS011;9455;54.302;10.124;2022-10-19T10:49:19;5.67;;;0.53;;
18651;SDS011;9455;54.302;10.124;2022-10-19T10:51:50;5.53;;;0.40;;
18651;SDS011;9455;54.302;10.124;2022-10-19T10:54:20;1.17;;;0.37;;
18651;SDS011;9455;54.302;10.124;2022-10-19T10:56:56;0.40;;;0.30;;
18651;SDS011;9455;54.302;10.124;2022-10-19T10:59:29;0.30;;;0.27;;
18651;SDS011;9455;54.302;10.124;2022-10-19T11:02:00;0.30;;;0.30;;
18651;SDS011;9455;54.302;10.124;2022-10-19T11:04:29;0.20;;;0.20;;
18651;SDS011;9455;54.302;10.124;2022-10-19T11:07:04;2.00;;;0.27;;
18651;SDS011;9455;54.302;10.124;2022-10-19T11:09:41;0.30;;;0.30;;
18651;SDS011;9455;54.302;10.124;2022-10-19T11:12:10;0.10;;;0.10;;
18651;SDS011;9455;54.302;10.124;2022-10-19T11:14:45;0.23;;;0.23;;
18651;SDS011;9455;54.302;10.124;2022-10-19T11:17:17;0.20;;;0.20;;
18651;SDS011;9455;54.302;10.124;2022-10-19T11:19:47;0.10;;;0.10;;
18651;SDS011;9455;54.302;10.124;2022-10-19T11:22:18;0.47;;;0.47;;
18651;SDS011;9455;54.302;10.124;2022-10-19T11:24:53;1.40;;;0.40;;
18651;SDS011;9455;54.302;10.124;2022-10-19T11:27:33;6.33;;;0.30;;
18651;SDS011;9455;54.302;10.124;2022-10-19T11:30:08;1.20;;;0.30;;
18651;SDS011;9455;54.302;10.124;2022-10-19T11:32:42;0.53;;;0.10;;
18651;SDS011;9455;54.302;10.124;2022-10-19T11:38:26;0.30;;;0.30;;
18651;SDS011;9455;54.302;10.124;2022-10-19T11:41:03;6.53;;;0.40;;
18651;SDS011;9455;54.302;10.124;2022-10-19T11:43:39;0.40;;;0.30;;
18651;SDS011;9455;54.302;10.124;2022-10-19T11:46:15;1.00;;;0.23;;
18651;SDS011;9455;54.302;10.124;2022-10-19T11:49:05;0.20;;;0.20;;
18651;SDS011;9455;54.302;10.124;2022-10-19T11:51:44;0.20;;;0.20;;
18651;SDS011;9455;54.302;10.124;2022-10-19T11:54:23;1.20;;;0.30;;
18651;SDS011;9455;54.302;10.124;2022-10-19T11:56:58;1.60;;;0.40;;
18651;SDS011;9455;54.302;10.124;2022-10-19T11:59:36;2.53;;;0.47;;
18651;SDS011;9455;54.302;10.124;2022-10-19T12:02:22;0.37;;;0.37;;
18651;SDS011;9455;54.302;10.124;2022-10-19T12:05:07;0.40;;;0.40;;
18651;SDS011;9455;54.302;10.124;2022-10-19T12:07:47;4.90;;;0.20;;
18651;SDS011;9455;54.302;10.124;2022-10-19T12:10:26;0.10;;;0.10;;
18651;SDS011;9455;54.302;10.124;2022-10-19T12:13:00;0.20;;;0.20;;
18651;SDS011;9455;54.302;10.124;2022-10-19T12:15:29;1.83;;;0.50;;
18651;SDS011;9455;54.302;10.124;2022-10-19T12:18:00;0.30;;;0.30;;
18651;SDS011;9455;54.302;10.124;2022-10-19T12:20:33;0.30;;;0.20;;
18651;SDS011;9455;54.302;10.124;2022-10-19T12:23:05;0.87;;;0.40;;
18651;SDS011;9455;54.302;10.124;2022-10-19T12:25:43;0.20;;;0.20;;
18651;SDS011;9455;54.302;10.124;2022-10-19T12:28:13;0.67;;;0.27;;
18651;SDS011;9455;54.302;10.124;2022-10-19T12:30:46;1.70;;;0.30;;
18651;SDS011;9455;54.302;10.124;2022-10-19T12:33:14;1.37;;;0.40;;
18651;SDS011;9455;54.302;10.124;2022-10-19T12:36:02;0.37;;;0.30;;
18651;SDS011;9455;54.302;10.124;2022-10-19T12:38:38;0.23;;;0.23;;
18651;SDS011;9455;54.302;10.124;2022-10-19T12:41:16;0.23;;;0.23;;
18651;SDS011;9455;54.302;10.124;2022-10-19T12:43:55;0.33;;;0.33;;
18651;SDS011;9455;54.302;10.124;2022-10-19T12:46:33;0.27;;;0.20;;
18651;SDS011;9455;54.302;10.124;2022-10-19T12:52:08;0.87;;;0.30;;
18651;SDS011;9455;54.302;10.124;2022-10-19T12:54:36;1.83;;;0.10;;
18651;SDS011;9455;54.302;10.124;2022-10-19T12:57:19;0.20;;;0.20;;
18651;SDS011;9455;54.302;10.124;2022-10-19T12:59:58;0.37;;;0.37;;
18651;SDS011;9455;54.302;10.124;2022-10-19T13:02:28;0.20;;;0.20;;
18651;SDS011;9455;54.302;10.124;2022-10-19T13:04:57;0.30;;;0.30;;
18651;SDS011;9455;54.302;10.124;2022-10-19T13:07:24;0.30;;;0.30;;
18651;SDS011;9455;54.302;10.124;2022-10-19T13:09:58;2.50;;;0.23;;
18651;SDS011;9455;54.302;10.124;2022-10-19T13:12:28;0.67;;;0.47;;
18651;SDS011;9455;54.302;10.124;2022-10-19T13:21:48;0.57;;;0.40;;
18651;SDS011;9455;54.302;10.124;2022-10-19T13:29:51;1.50;;;0.30;;
18651;SDS011;9455;54.302;10.124;2022-10-19T13:32:30;0.40;;;0.40;;
18651;SDS011;9455;54.302;10.124;2022-10-19T13:43:48;1.50;;;0.53;;
18651;SDS011;9455;54.302;10.124;2022-10-19T13:46:20;2.63;;;0.40;;
18651;SDS011;9455;54.302;10.124;2022-10-19T13:49:05;0.20;;;0.20;;
18651;SDS011;9455;54.302;10.124;2022-10-19T13:51:54;0.20;;;0.20;;
18651;SDS011;9455;54.302;10.124;2022-10-19T13:54:37;0.40;;;0.40;;
18651;SDS011;9455;54.302;10.124;2022-10-19T13:57:20;0.13;;;0.13;;
18651;SDS011;9455;54.302;10.124;2022-10-19T14:00:04;0.50;;;0.30;;
18651;SDS011;9455;54.302;10.124;2022-10-19T14:05:49;2.07;;;0.43;;
18651;SDS011;9455;54.302;10.124;2022-10-19T14:08:29;0.27;;;0.27;;
18651;SDS011;9455;54.302;10.124;2022-10-19T14:11:16;3.40;;;0.23;;
18651;SDS011;9455;54.302;10.124;2022-10-19T14:13:44;0.50;;;0.50;;
18651;SDS011;9455;54.302;10.124;2022-10-19T14:16:16;0.40;;;0.40;;
18651;SDS011;9455;54.302;10.124;2022-10-19T14:18:52;0.30;;;0.30;;
18651;SDS011;9455;54.302;10.124;2022-10-19T14:21:27;0.20;;;0.20;;
18651;SDS011;9455;54.302;10.124;2022-10-19T14:23:55;0.27;;;0.27;;
18651;SDS011;9455;54.302;10.124;2022-10-19T14:26:22;3.07;;;0.40;;
18651;SDS011;9455;54.302;10.124;2022-10-19T14:28:52;0.40;;;0.40;;
18651;SDS011;9455;54.302;10.124;2022-10-19T14:31:21;0.40;;;0.40;;
18651;SDS011;9455;54.302;10.124;2022-10-19T14:33:52;0.47;;;0.37;;
18651;SDS011;9455;54.302;10.124;2022-10-19T14:36:24;0.37;;;0.33;;
18651;SDS011;9455;54.302;10.124;2022-10-19T14:38:55;0.10;;;0.10;;
18651;SDS011;9455;54.302;10.124;2022-10-19T14:41:28;0.30;;;0.30;;
18651;SDS011;9455;54.302;10.124;2022-10-19T14:43:56;0.53;;;0.40;;
18651;SDS011;9455;54.302;10.124;2022-10-19T14:46:24;1.50;;;0.60;;
18651;SDS011;9455;54.302;10.124;2022-10-19T14:48:57;0.37;;;0.30;;
18651;SDS011;9455;54.302;10.124;2022-10-19T14:51:29;0.53;;;0.30;;
18651;SDS011;9455;54.302;10.124;2022-10-19T14:54:00;1.23;;;0.33;;
18651;SDS011;9455;54.302;10.124;2022-10-19T14:56:32;1.57;;;0.30;;
18651;SDS011;9455;54.302;10.124;2022-10-19T14:59:02;0.40;;;0.40;;
18651;SDS011;9455;54.302;10.124;2022-10-19T15:01:32;0.40;;;0.40;;
18651;SDS011;9455;54.302;10.124;2022-10-19T15:04:02;0.20;;;0.20;;
18651;SDS011;9455;54.302;10.124;2022-10-19T15:06:29;0.40;;;0.40;;
18651;SDS011;9455;54.302;10.124;2022-10-19T15:09:00;0.30;;;0.30;;
18651;SDS011;9455;54.302;10.124;2022-10-19T15:11:29;0.30;;;0.30;;
18651;SDS011;9455;54.302;10.124;2022-10-19T15:14:04;10.90;;;0.53;;
18651;SDS011;9455;54.302;10.124;2022-10-19T15:16:50;0.50;;;0.50;;
18651;SDS011;9455;54.302;10.124;2022-10-19T15:19:22;0.40;;;0.40;;
18651;SDS011;9455;54.302;10.124;2022-10-19T15:22:05;0.80;;;0.80;;
18651;SDS011;9455;54.302;10.124;2022-10-19T15:24:37;0.57;;;0.57;;
18651;SDS011;9455;54.302;10.124;2022-10-19T15:27:08;1.00;;;0.83;;
18651;SDS011;9455;54.302;10.124;2022-10-19T15:29:36;1.47;;;1.00;;
18651;SDS011;9455;54.302;10.124;2022-10-19T15:32:12;2.87;;;1.20;;
18651;SDS011;9455;54.302;10.124;2022-10-19T15:34:42;0.80;;;0.80;;
18651;SDS011;9455;54.302;10.124;2022-10-19T15:37:12;0.87;;;0.50;;